Time;durP1;ratioP1;P1;durP2;ratioP2;P2;SDS_P1;SDS_P2;PMS_P1;PMS_P2;Temp;Humidity;BMP_temperature;BMP_pressure;BME280_temperature;BME280_humidity;BME280_pressure;Samples;Min_cycle;Max_cycle;Signal;HPM_P1;HPM_P2
2023/08/27 00:02:24;;;;;;;5.10;4.20;;;14.90;99.90;;;;;;5077190;28;20232;-82
2023/08/27 00:04:49;;;;;;;6.72;4.38;;;14.90;99.90;;;;;;5077527;28;20177;-81
2023/08/27 00:07:16;;;;;;;5.47;3.90;;;14.90;99.90;;;;;;5078933;28;20173;-81
2023/08/27 00:09:41;;;;;;;5.20;3.63;;;14.90;99.90;;;;;;5076936;28;20202;-81
2023/08/27 00:12:07;;;;;;;5.90;3.83;;;14.90;99.90;;;;;;5076716;28;20215;-81
2023/08/27 00:14:33;;;;;;;7.82;4.20;;;14.90;99.90;;;;;;5083428;28;20178;-81
2023/08/27 00:17:03;;;;;;;6.40;3.90;;;14.90;99.90;;;;;;5083031;28;20594;-83
2023/08/27 00:19:28;;;;;;;7.15;4.60;;;14.80;99.90;;;;;;5082550;28;20685;-82
2023/08/27 00:21:54;;;;;;;7.13;4.07;;;14.80;99.90;;;;;;5082767;28;20189;-82
2023/08/27 00:24:20;;;;;;;7.43;4.20;;;14.70;99.90;;;;;;5082022;28;20201;-82
2023/08/27 00:26:46;;;;;;;5.03;4.22;;;14.60;99.90;;;;;;5080797;28;20181;-82
2023/08/27 00:29:11;;;;;;;4.57;4.07;;;14.60;99.90;;;;;;5079424;28;20194;-80
2023/08/27 00:31:37;;;;;;;7.10;4.28;;;14.60;99.90;;;;;;5063643;28;20187;-80
2023/08/27 00:34:03;;;;;;;11.25;4.70;;;14.50;99.90;;;;;;5065310;28;20182;-80
2023/08/27 00:36:28;;;;;;;5.90;4.28;;;14.60;99.90;;;;;;5081271;28;20185;-81
2023/08/27 00:38:54;;;;;;;5.78;4.60;;;14.60;99.90;;;;;;5085281;28;20177;-79
2023/08/27 00:41:20;;;;;;;5.00;4.03;;;14.60;99.90;;;;;;5078532;28;20190;-79
2023/08/27 00:43:46;;;;;;;4.93;4.32;;;14.50;99.90;;;;;;5078342;28;20546;-79
2023/08/27 00:46:12;;;;;;;8.23;4.50;;;14.60;99.90;;;;;;5079053;28;20182;-79
2023/08/27 00:48:39;;;;;;;7.10;4.43;;;14.60;99.90;;;;;;5074810;28;20277;-79
2023/08/27 00:51:05;;;;;;;9.98;4.93;;;14.50;99.90;;;;;;5079820;28;20220;-79
2023/08/27 00:53:31;;;;;;;6.00;4.25;;;14.50;99.90;;;;;;5079505;28;20170;-79
2023/08/27 00:55:57;;;;;;;6.32;4.85;;;14.50;99.90;;;;;;5078922;28;20193;-79
2023/08/27 00:58:23;;;;;;;8.85;4.93;;;14.50;99.90;;;;;;5079286;28;20174;-78
2023/08/27 01:00:49;;;;;;;11.65;5.43;;;14.60;99.90;;;;;;5080145;28;20209;-79
2023/08/27 01:03:15;;;;;;;8.93;5.60;;;14.50;99.90;;;;;;5080948;28;20202;-79
2023/08/27 01:05:41;;;;;;;6.00;5.13;;;14.50;99.90;;;;;;5068322;28;20179;-79
2023/08/27 01:08:13;;;;;;;6.78;5.10;;;14.40;99.90;;;;;;5060380;28;20179;-79
2023/08/27 01:11:05;;;;;;;6.72;4.95;;;14.40;99.90;;;;;;5058722;28;20229;-79
2023/08/27 01:13:52;;;;;;;7.15;4.93;;;14.40;99.90;;;;;;5057692;28;20582;-79
2023/08/27 01:16:21;;;;;;;7.15;4.97;;;14.30;99.90;;;;;;5065959;28;20178;-80
2023/08/27 01:18:49;;;;;;;6.40;4.55;;;14.30;99.90;;;;;;5075866;28;20598;-79
2023/08/27 01:21:19;;;;;;;6.68;4.00;;;14.30;99.90;;;;;;5077606;28;20674;-79
2023/08/27 01:23:45;;;;;;;6.40;4.53;;;14.20;99.90;;;;;;5075817;28;20181;-80
2023/08/27 01:26:32;;;;;;;6.65;4.65;;;14.10;99.90;;;;;;5079174;28;20177;-79
2023/08/27 01:29:13;;;;;;;8.73;4.80;;;14.20;99.90;;;;;;5077769;28;20556;-79
2023/08/27 01:31:47;;;;;;;9.15;4.90;;;14.10;99.90;;;;;;5078606;28;20176;-79
2023/08/27 01:34:16;;;;;;;9.23;4.85;;;14.00;99.90;;;;;;5076974;28;20273;-79
2023/08/27 01:36:42;;;;;;;8.52;4.78;;;14.10;99.90;;;;;;5075972;28;20182;-79
2023/08/27 01:39:13;;;;;;;6.25;4.85;;;14.10;99.90;;;;;;5057382;28;20605;-79
2023/08/27 01:41:39;;;;;;;10.02;4.97;;;14.10;99.90;;;;;;5057353;28;20269;-79
2023/08/27 01:44:05;;;;;;;7.90;5.20;;;14.10;99.90;;;;;;5057742;28;20182;-79
2023/08/27 01:46:31;;;;;;;10.32;5.32;;;14.00;99.90;;;;;;5069019;28;20586;-79
2023/08/27 01:48:57;;;;;;;11.57;5.25;;;14.10;99.90;;;;;;5072859;28;20196;-80
2023/08/27 01:51:23;;;;;;;8.20;5.20;;;14.00;99.90;;;;;;5057346;28;20180;-79
2023/08/27 01:53:48;;;;;;;8.27;6.38;;;14.00;99.90;;;;;;5057772;28;20182;-79
2023/08/27 01:56:14;;;;;;;8.77;6.07;;;14.00;99.90;;;;;;5057122;28;20209;-79
2023/08/27 01:58:41;;;;;;;8.13;6.00;;;14.00;99.90;;;;;;5058526;28;20285;-79
2023/08/27 02:01:06;;;;;;;10.52;5.90;;;13.90;99.90;;;;;;5056862;28;20261;-79
2023/08/27 02:03:32;;;;;;;10.40;6.30;;;13.90;99.90;;;;;;5064529;28;20657;-79
2023/08/27 02:05:58;;;;;;;7.85;5.55;;;13.90;99.90;;;;;;5073774;28;20185;-79
2023/08/27 02:08:23;;;;;;;11.00;5.50;;;13.90;99.90;;;;;;5063091;28;20192;-79
2023/08/27 02:10:49;;;;;;;10.68;6.18;;;13.90;99.90;;;;;;5078830;28;20198;-79
2023/08/27 02:13:16;;;;;;;6.35;5.70;;;13.90;99.90;;;;;;5077278;28;20526;-79
2023/08/27 02:15:44;;;;;;;7.80;6.20;;;13.90;99.90;;;;;;5076000;28;20243;-80
2023/08/27 02:18:10;;;;;;;10.98;6.07;;;13.90;99.90;;;;;;5078184;28;20256;-79
2023/08/27 02:20:36;;;;;;;8.80;5.50;;;13.80;99.90;;;;;;5076142;28;20245;-79
2023/08/27 02:23:03;;;;;;;7.88;5.55;;;13.80;99.90;;;;;;5077398;28;20244;-79
2023/08/27 02:25:28;;;;;;;8.45;6.03;;;13.80;99.90;;;;;;5077824;28;20658;-79
2023/08/27 02:27:54;;;;;;;8.95;5.93;;;13.70;99.90;;;;;;5078512;28;20203;-79
2023/08/27 02:30:20;;;;;;;7.38;5.68;;;13.70;99.90;;;;;;5074887;28;20205;-80
2023/08/27 02:32:46;;;;;;;7.53;5.70;;;13.70;99.90;;;;;;5077033;28;20177;-80
2023/08/27 02:35:11;;;;;;;10.07;5.97;;;13.60;99.90;;;;;;5075598;28;20234;-79
2023/08/27 02:37:37;;;;;;;11.10;6.60;;;13.60;99.90;;;;;;5078077;28;20692;-80
2023/08/27 02:40:03;;;;;;;7.50;5.22;;;13.60;99.90;;;;;;5078920;28;20603;-79
2023/08/27 02:42:29;;;;;;;8.27;5.38;;;13.50;99.90;;;;;;5078834;28;20201;-80
2023/08/27 02:44:54;;;;;;;11.35;5.20;;;13.40;99.90;;;;;;5076898;28;20208;-78
2023/08/27 02:47:20;;;;;;;7.65;5.10;;;13.40;99.90;;;;;;5078135;28;20185;-80
2023/08/27 02:49:46;;;;;;;8.48;5.00;;;13.40;99.90;;;;;;5083688;28;20632;-78
2023/08/27 02:52:12;;;;;;;9.35;5.18;;;13.40;99.90;;;;;;5088797;28;20201;-77
2023/08/27 02:54:37;;;;;;;7.25;4.93;;;13.40;99.90;;;;;;5075208;28;20185;-78
2023/08/27 02:57:03;;;;;;;10.60;5.45;;;13.40;99.90;;;;;;5074594;28;20185;-78
2023/08/27 02:59:29;;;;;;;6.15;5.53;;;13.30;99.90;;;;;;5072230;28;20210;-78
2023/08/27 03:01:55;;;;;;;8.45;5.97;;;13.30;99.90;;;;;;5072544;28;20201;-78
2023/08/27 03:04:21;;;;;;;7.00;5.28;;;13.30;99.90;;;;;;5074260;28;20186;-78
2023/08/27 03:06:47;;;;;;;9.30;6.00;;;13.30;99.90;;;;;;5075323;28;20182;-78
2023/08/27 03:09:12;;;;;;;8.50;6.20;;;13.30;99.90;;;;;;5073962;28;20189;-78
2023/08/27 03:11:38;;;;;;;7.80;6.35;;;13.40;99.90;;;;;;5072935;28;20255;-78
2023/08/27 03:14:04;;;;;;;9.80;5.82;;;13.30;99.90;;;;;;5073961;28;20175;-78
2023/08/27 03:16:30;;;;;;;10.30;6.43;;;13.20;99.90;;;;;;5075515;28;20265;-79
2023/08/27 03:18:55;;;;;;;7.75;6.18;;;13.20;99.90;;;;;;5075634;28;20646;-79
2023/08/27 03:21:21;;;;;;;8.25;5.82;;;13.20;99.90;;;;;;5075733;28;20206;-79
2023/08/27 03:23:47;;;;;;;6.28;5.63;;;13.30;99.90;;;;;;5077100;28;20184;-79
2023/08/27 03:26:13;;;;;;;6.47;5.85;;;13.30;99.90;;;;;;5076236;28;20177;-79
2023/08/27 03:28:39;;;;;;;8.38;5.57;;;13.30;99.90;;;;;;5076425;28;20646;-79
2023/08/27 03:31:04;;;;;;;9.38;5.72;;;13.20;99.90;;;;;;5074729;28;20205;-79
2023/08/27 03:33:31;;;;;;;7.43;6.10;;;13.20;99.90;;;;;;5077207;28;20185;-79
2023/08/27 03:35:58;;;;;;;7.90;5.75;;;13.20;99.90;;;;;;5075806;28;20206;-79
2023/08/27 03:38:24;;;;;;;8.55;5.50;;;13.20;99.90;;;;;;5076824;28;20178;-79
2023/08/27 03:40:52;;;;;;;6.40;5.03;;;13.20;99.90;;;;;;5074670;28;20202;-79
2023/08/27 03:43:18;;;;;;;7.95;5.90;;;13.10;99.90;;;;;;5075567;28;20611;-79
2023/08/27 03:45:43;;;;;;;6.43;4.85;;;13.10;99.90;;;;;;5075575;28;20188;-79
2023/08/27 03:48:10;;;;;;;7.97;5.22;;;13.00;99.90;;;;;;5074785;28;20579;-79
2023/08/27 03:50:36;;;;;;;7.97;5.72;;;13.00;99.90;;;;;;5065457;28;20214;-79
2023/08/27 03:53:03;;;;;;;9.50;6.15;;;13.00;99.90;;;;;;5074860;28;20231;-79
2023/08/27 03:55:29;;;;;;;7.88;5.30;;;13.00;99.90;;;;;;5076228;28;20176;-79
2023/08/27 03:57:56;;;;;;;6.60;5.60;;;13.00;99.90;;;;;;5074320;28;20177;-79
2023/08/27 04:00:22;;;;;;;6.93;5.07;;;13.00;99.90;;;;;;5074237;28;20202;-79
2023/08/27 04:02:48;;;;;;;6.78;5.60;;;13.00;99.90;;;;;;5075281;28;20251;-79
2023/08/27 04:05:14;;;;;;;9.50;5.13;;;12.90;99.90;;;;;;5074518;28;20170;-79
2023/08/27 04:07:39;;;;;;;7.82;5.68;;;12.90;99.90;;;;;;5073687;28;20173;-80
2023/08/27 04:10:06;;;;;;;6.35;5.05;;;12.90;99.90;;;;;;5091169;28;20233;-79
2023/08/27 04:12:32;;;;;;;8.23;5.40;;;12.90;99.90;;;;;;5074993;28;20189;-79
2023/08/27 04:14:58;;;;;;;10.07;5.25;;;12.90;99.90;;;;;;5075830;28;20189;-79
2023/08/27 04:17:24;;;;;;;9.18;5.20;;;12.90;99.90;;;;;;5075973;28;20181;-79
2023/08/27 04:19:49;;;;;;;9.20;5.35;;;12.90;99.90;;;;;;5065344;28;20207;-79
2023/08/27 04:22:15;;;;;;;6.80;5.28;;;13.00;99.90;;;;;;5071888;28;20198;-79
2023/08/27 04:24:44;;;;;;;6.60;4.93;;;13.00;99.90;;;;;;5062426;28;20186;-80
2023/08/27 04:27:10;;;;;;;10.05;5.10;;;13.00;99.90;;;;;;5075252;28;20205;-79
2023/08/27 04:29:36;;;;;;;6.55;5.20;;;12.90;99.90;;;;;;5076593;28;20239;-79
2023/08/27 04:32:03;;;;;;;7.32;5.30;;;12.90;99.90;;;;;;5076092;28;20177;-79
2023/08/27 04:34:29;;;;;;;6.72;5.35;;;12.90;99.90;;;;;;5075853;28;20566;-79
2023/08/27 04:36:56;;;;;;;7.05;4.80;;;12.80;99.90;;;;;;5075538;28;20178;-79
2023/08/27 04:39:22;;;;;;;6.15;4.55;;;12.80;99.90;;;;;;5074108;28;20631;-79
2023/08/27 04:41:48;;;;;;;6.38;4.63;;;12.80;99.90;;;;;;5074084;28;20200;-79
2023/08/27 04:44:14;;;;;;;6.85;4.78;;;12.80;99.90;;;;;;5074022;28;20544;-78
2023/08/27 04:46:40;;;;;;;7.90;4.60;;;12.80;99.90;;;;;;5075144;28;20272;-78
2023/08/27 04:49:06;;;;;;;5.93;5.07;;;12.80;99.90;;;;;;5068910;28;20229;-79
2023/08/27 04:51:31;;;;;;;7.95;4.75;;;12.80;99.90;;;;;;5053758;28;20209;-79
2023/08/27 04:53:57;;;;;;;9.52;5.20;;;12.80;99.90;;;;;;5054339;28;20217;-79
2023/08/27 04:56:23;;;;;;;5.55;4.90;;;12.70;99.90;;;;;;5053793;28;20179;-78
2023/08/27 04:58:49;;;;;;;6.18;5.10;;;12.80;99.90;;;;;;5064623;28;20261;-79
2023/08/27 05:01:15;;;;;;;8.65;5.32;;;12.80;99.90;;;;;;5077191;28;20206;-79
2023/08/27 05:03:40;;;;;;;6.40;5.28;;;12.80;99.90;;;;;;5077121;28;20268;-79
2023/08/27 05:06:06;;;;;;;21.08;5.47;;;12.80;99.90;;;;;;5077461;28;20213;-79
2023/08/27 05:08:32;;;;;;;7.57;5.00;;;12.80;99.90;;;;;;5077353;28;20178;-79
2023/08/27 05:10:58;;;;;;;6.68;5.28;;;12.70;99.90;;;;;;5078159;28;20200;-79
2023/08/27 05:13:25;;;;;;;8.75;4.95;;;12.70;99.90;;;;;;5078307;28;20170;-79
2023/08/27 05:15:51;;;;;;;10.38;5.47;;;12.80;99.90;;;;;;5072374;28;20193;-79
2023/08/27 05:18:17;;;;;;;7.15;5.13;;;12.80;99.90;;;;;;5057734;28;20166;-79
2023/08/27 05:20:44;;;;;;;7.03;5.32;;;12.80;99.90;;;;;;5076196;28;20287;-79
2023/08/27 05:23:10;;;;;;;6.43;5.55;;;12.80;99.90;;;;;;5076655;28;20220;-79
2023/08/27 05:25:36;;;;;;;8.77;5.38;;;12.80;99.90;;;;;;5076574;28;20177;-79
2023/08/27 05:28:02;;;;;;;5.55;4.82;;;12.90;99.90;;;;;;5076716;28;20196;-79
2023/08/27 05:30:28;;;;;;;5.97;4.50;;;12.90;99.90;;;;;;5076638;28;20201;-78
2023/08/27 05:32:54;;;;;;;9.27;5.45;;;12.90;99.90;;;;;;5075402;28;20181;-79
2023/08/27 05:35:20;;;;;;;6.40;4.85;;;13.00;99.90;;;;;;5078122;28;20575;-79
2023/08/27 05:37:46;;;;;;;7.50;4.80;;;12.90;99.90;;;;;;5076781;28;20174;-79
2023/08/27 05:40:12;;;;;;;10.18;4.78;;;13.00;99.90;;;;;;5078054;28;20219;-79
2023/08/27 05:42:37;;;;;;;7.68;4.78;;;13.00;99.90;;;;;;5076079;28;20257;-79
2023/08/27 05:45:03;;;;;;;8.38;5.30;;;13.20;99.90;;;;;;5076812;28;20249;-79
2023/08/27 05:47:30;;;;;;;6.97;4.68;;;13.30;99.90;;;;;;5074001;28;20182;-79
2023/08/27 05:49:56;;;;;;;8.30;5.15;;;13.30;99.90;;;;;;5074448;28;20253;-79
2023/08/27 05:52:21;;;;;;;6.55;4.95;;;13.40;99.90;;;;;;5076378;28;20178;-79
2023/08/27 05:54:47;;;;;;;4.93;4.30;;;13.50;99.90;;;;;;5075487;28;20208;-79
2023/08/27 05:57:13;;;;;;;8.85;4.85;;;13.60;99.90;;;;;;5075241;28;20182;-79
2023/08/27 05:59:39;;;;;;;6.05;4.50;;;13.70;99.90;;;;;;5064365;28;20238;-79
2023/08/27 06:02:05;;;;;;;8.45;5.15;;;13.90;99.90;;;;;;5068902;28;20189;-79
2023/08/27 06:04:31;;;;;;;6.15;4.50;;;14.00;99.90;;;;;;5060523;28;20182;-81
2023/08/27 06:06:56;;;;;;;8.30;4.70;;;14.10;99.90;;;;;;5071526;28;20212;-80
2023/08/27 06:09:22;;;;;;;8.55;5.25;;;14.10;99.90;;;;;;5073612;28;20558;-80
2023/08/27 06:11:48;;;;;;;5.65;4.72;;;14.00;99.90;;;;;;5072700;28;20197;-79
2023/08/27 06:14:14;;;;;;;9.93;5.30;;;13.90;99.90;;;;;;5072779;28;20181;-79
2023/08/27 06:16:39;;;;;;;7.30;5.55;;;13.70;99.90;;;;;;5072498;28;20169;-80
2023/08/27 06:19:05;;;;;;;7.10;5.70;;;13.70;99.90;;;;;;5073412;28;20243;-81
2023/08/27 06:21:31;;;;;;;7.85;5.60;;;13.70;99.90;;;;;;5071918;28;20194;-80
2023/08/27 06:23:57;;;;;;;8.35;5.35;;;13.60;99.90;;;;;;5074195;28;20605;-80
2023/08/27 06:26:23;;;;;;;7.47;5.07;;;13.50;99.90;;;;;;5075069;28;20174;-80
2023/08/27 06:28:49;;;;;;;8.43;5.07;;;13.50;99.90;;;;;;5076420;28;20254;-80
2023/08/27 06:31:15;;;;;;;9.00;5.38;;;13.50;99.90;;;;;;5076219;28;20193;-80
2023/08/27 06:33:40;;;;;;;8.60;5.75;;;13.60;99.90;;;;;;5074310;28;20181;-80
2023/08/27 06:36:06;;;;;;;6.60;5.25;;;13.60;99.90;;;;;;5073944;28;20579;-80
2023/08/27 06:38:32;;;;;;;7.57;4.82;;;13.60;99.90;;;;;;5074721;28;20225;-80
2023/08/27 06:40:58;;;;;;;6.60;5.03;;;13.60;99.90;;;;;;5074516;28;20217;-80
2023/08/27 06:43:25;;;;;;;6.38;4.70;;;13.60;99.90;;;;;;5077081;28;20170;-80
2023/08/27 06:45:51;;;;;;;7.60;5.20;;;13.80;99.90;;;;;;5076612;28;20248;-80
2023/08/27 06:48:17;;;;;;;6.20;4.30;;;13.80;99.90;;;;;;5076268;28;20201;-80
2023/08/27 06:50:43;;;;;;;6.03;4.30;;;13.90;99.90;;;;;;5074377;28;20765;-80
2023/08/27 06:53:10;;;;;;;8.15;4.95;;;13.80;99.90;;;;;;5074086;28;20225;-80
2023/08/27 06:55:36;;;;;;;5.50;4.93;;;13.80;99.90;;;;;;5074883;28;20173;-80
2023/08/27 06:58:02;;;;;;;6.15;4.93;;;13.90;99.90;;;;;;5076145;28;20184;-80
2023/08/27 07:00:28;;;;;;;6.95;5.10;;;14.00;99.90;;;;;;5074542;28;20197;-80
2023/08/27 07:02:54;;;;;;;6.53;4.60;;;14.00;99.90;;;;;;5073388;28;20212;-81
2023/08/27 07:05:20;;;;;;;5.88;4.30;;;14.10;99.90;;;;;;5076586;28;20173;-82
2023/08/27 07:07:46;;;;;;;8.07;4.43;;;14.10;99.90;;;;;;5075620;28;20596;-82
2023/08/27 07:10:12;;;;;;;8.52;4.65;;;14.10;99.90;;;;;;5073541;28;20220;-81
2023/08/27 07:12:38;;;;;;;4.43;4.03;;;14.10;99.90;;;;;;5074495;28;20196;-81
2023/08/27 07:15:05;;;;;;;4.88;3.88;;;14.10;99.90;;;;;;5074320;28;20269;-81
2023/08/27 07:17:34;;;;;;;7.35;4.03;;;14.20;99.90;;;;;;5074694;28;20185;-82
2023/08/27 07:20:02;;;;;;;5.97;4.25;;;14.20;99.90;;;;;;5074503;28;20213;-81
2023/08/27 07:22:28;;;;;;;6.47;4.18;;;14.30;99.90;;;;;;5073721;28;20617;-82
2023/08/27 07:24:54;;;;;;;8.30;4.25;;;14.30;99.90;;;;;;5073830;28;20186;-81
2023/08/27 07:27:20;;;;;;;6.30;4.45;;;14.30;99.90;;;;;;5076973;28;20248;-82
2023/08/27 07:29:45;;;;;;;4.97;4.43;;;14.30;99.90;;;;;;5075463;28;20197;-81
2023/08/27 07:32:11;;;;;;;5.88;4.88;;;14.30;99.90;;;;;;5076183;28;20185;-82
2023/08/27 07:34:37;;;;;;;7.30;4.72;;;14.40;99.90;;;;;;5076283;28;20253;-81
2023/08/27 07:37:03;;;;;;;6.03;4.95;;;14.50;99.90;;;;;;5074929;28;20650;-82
2023/08/27 07:39:29;;;;;;;7.20;4.57;;;14.60;99.90;;;;;;5075343;28;20265;-81
2023/08/27 07:41:55;;;;;;;8.45;4.60;;;14.60;99.90;;;;;;5073911;28;20197;-81
2023/08/27 07:44:21;;;;;;;5.38;4.50;;;14.80;99.90;;;;;;5075208;28;20545;-82
2023/08/27 07:46:46;;;;;;;7.03;4.70;;;15.00;99.90;;;;;;5074809;28;20208;-82
2023/08/27 07:49:12;;;;;;;6.18;4.80;;;15.00;99.90;;;;;;5073618;28;20197;-83
2023/08/27 07:51:38;;;;;;;6.88;4.25;;;15.00;99.90;;;;;;5073268;28;20182;-82
2023/08/27 07:54:04;;;;;;;8.00;4.38;;;15.00;99.90;;;;;;5072298;28;20185;-82
2023/08/27 07:56:30;;;;;;;5.05;4.10;;;15.10;99.90;;;;;;5072854;28;20185;-82
2023/08/27 07:58:55;;;;;;;5.43;4.40;;;15.10;99.90;;;;;;5073086;28;20285;-82
2023/08/27 08:01:21;;;;;;;8.20;4.65;;;15.20;99.90;;;;;;5057385;28;20233;-82
2023/08/27 08:03:47;;;;;;;6.65;4.32;;;15.30;99.90;;;;;;5063669;28;20190;-81
2023/08/27 08:06:13;;;;;;;4.47;3.95;;;15.40;99.90;;;;;;5064374;28;20182;-82
2023/08/27 08:08:39;;;;;;;6.35;4.40;;;15.50;99.90;;;;;;5060797;28;20647;-81
2023/08/27 08:11:05;;;;;;;7.50;4.60;;;15.70;99.90;;;;;;5073526;28;20212;-80
2023/08/27 08:13:35;;;;;;;7.43;4.47;;;15.80;99.90;;;;;;5072468;28;20198;-78
2023/08/27 08:16:02;;;;;;;6.90;4.63;;;15.90;99.90;;;;;;5070498;28;20574;-79
2023/08/27 08:18:28;;;;;;;4.68;3.80;;;15.90;99.90;;;;;;5071262;28;20204;-77
2023/08/27 08:20:56;;;;;;;9.10;4.30;;;16.00;99.90;;;;;;5065980;28;20549;-79
2023/08/27 08:23:22;;;;;;;4.28;3.70;;;16.10;99.90;;;;;;5071586;28;20185;-79
2023/08/27 08:25:51;;;;;;;5.95;3.67;;;16.10;99.90;;;;;;5068434;28;20186;-78
2023/08/27 08:28:16;;;;;;;4.85;3.70;;;16.00;99.90;;;;;;5062569;28;20201;-78
2023/08/27 08:30:49;;;;;;;4.32;3.70;;;16.00;99.90;;;;;;5072323;28;20241;-78
2023/08/27 08:33:16;;;;;;;6.22;3.85;;;16.00;99.90;;;;;;5069901;28;20649;-77
2023/08/27 08:35:43;;;;;;;4.18;3.78;;;16.10;99.90;;;;;;5074352;28;20192;-78
2023/08/27 08:38:09;;;;;;;6.28;3.83;;;16.20;99.90;;;;;;5076411;28;20261;-79
2023/08/27 08:40:48;;;;;;;5.97;3.90;;;16.10;99.90;;;;;;5076133;28;20665;-78
2023/08/27 08:43:20;;;;;;;3.88;3.47;;;16.10;99.90;;;;;;5074967;28;20182;-77
2023/08/27 08:45:55;;;;;;;5.88;3.72;;;16.10;99.90;;;;;;5080465;28;20170;-76
2023/08/27 08:48:25;;;;;;;5.43;3.70;;;16.10;99.90;;;;;;5075999;28;20209;-76
2023/08/27 08:50:53;;;;;;;7.18;3.63;;;16.10;99.90;;;;;;5069720;28;20218;-78
2023/08/27 08:53:21;;;;;;;6.65;3.22;;;16.20;99.90;;;;;;5075562;28;20188;-77
2023/08/27 08:55:51;;;;;;;8.02;3.55;;;16.30;99.90;;;;;;5077050;28;20174;-77
2023/08/27 08:58:19;;;;;;;5.50;3.97;;;16.40;99.90;;;;;;5077527;28;20227;-76
2023/08/27 09:00:45;;;;;;;6.63;4.30;;;16.50;99.90;;;;;;5075704;28;20610;-76
2023/08/27 09:03:14;;;;;;;4.15;3.45;;;16.40;99.90;;;;;;5076469;28;20543;-76
2023/08/27 09:05:40;;;;;;;4.30;3.45;;;16.50;99.90;;;;;;5078436;28;20181;-77
2023/08/27 09:08:10;;;;;;;4.15;3.67;;;16.70;99.90;;;;;;5076880;28;20173;-78
2023/08/27 09:10:36;;;;;;;5.72;3.65;;;16.70;99.90;;;;;;5075386;28;20213;-77
2023/08/27 09:13:05;;;;;;;4.25;3.25;;;16.80;99.90;;;;;;5079934;28;20576;-77
2023/08/27 09:15:30;;;;;;;4.13;3.72;;;16.80;99.90;;;;;;5079392;28;20300;-77
2023/08/27 09:17:56;;;;;;;4.28;3.28;;;16.80;99.90;;;;;;5081411;28;20193;-78
2023/08/27 09:20:24;;;;;;;6.32;3.40;;;16.80;99.90;;;;;;5079018;28;20267;-78
2023/08/27 09:22:53;;;;;;;4.03;3.63;;;16.90;99.90;;;;;;5080086;28;20715;-77
2023/08/27 09:25:19;;;;;;;5.57;3.53;;;16.90;99.90;;;;;;5081873;28;20228;-78
2023/08/27 09:27:46;;;;;;;5.65;3.10;;;16.90;99.90;;;;;;5080644;28;20227;-78
2023/08/27 09:30:14;;;;;;;7.43;3.13;;;17.00;99.90;;;;;;5082262;28;20202;-77
2023/08/27 09:32:40;;;;;;;6.90;3.72;;;16.90;99.90;;;;;;5079043;28;20181;-78
2023/08/27 09:35:07;;;;;;;4.45;3.17;;;16.80;99.90;;;;;;5081741;28;20185;-77
2023/08/27 09:37:43;;;;;;;5.60;3.53;;;16.80;99.90;;;;;;5082785;28;20669;-78
2023/08/27 09:40:10;;;;;;;5.30;3.22;;;16.70;99.90;;;;;;5083672;28;20193;-77
2023/08/27 09:42:37;;;;;;;5.68;3.40;;;16.70;99.90;;;;;;5081892;28;20692;-78
2023/08/27 09:45:03;;;;;;;5.20;3.28;;;16.80;99.90;;;;;;5079062;28;20197;-78
2023/08/27 09:47:34;;;;;;;4.55;3.40;;;16.80;99.90;;;;;;5078294;28;20178;-78
2023/08/27 09:50:05;;;;;;;4.13;3.40;;;16.90;99.90;;;;;;5082899;28;20219;-78
2023/08/27 09:52:34;;;;;;;5.20;3.03;;;16.80;99.90;;;;;;5078379;28;20201;-76
2023/08/27 09:55:00;;;;;;;3.35;3.05;;;16.90;99.90;;;;;;5074531;28;20255;-74
2023/08/27 09:57:30;;;;;;;3.88;2.95;;;16.80;99.90;;;;;;5074484;28;20184;-75
2023/08/27 09:59:56;;;;;;;4.35;2.85;;;16.80;99.90;;;;;;5075867;28;20223;-75
2023/08/27 10:02:21;;;;;;;3.45;2.85;;;16.80;99.90;;;;;;5075576;28;20201;-75
2023/08/27 10:04:54;;;;;;;3.13;2.83;;;16.80;99.90;;;;;;5074405;28;20193;-75
2023/08/27 10:07:21;;;;;;;4.50;2.80;;;16.80;99.90;;;;;;5075910;28;20182;-75
2023/08/27 10:09:51;;;;;;;4.55;3.00;;;16.90;99.90;;;;;;5076426;28;20288;-74
2023/08/27 10:12:18;;;;;;;5.03;3.05;;;16.90;99.90;;;;;;5074711;28;20604;-75
2023/08/27 10:14:45;;;;;;;2.90;2.70;;;16.90;99.90;;;;;;5073513;28;20186;-75
2023/08/27 10:17:12;;;;;;;4.82;3.05;;;17.00;99.90;;;;;;5072787;28;20186;-75
2023/08/27 10:19:38;;;;;;;4.53;3.00;;;17.10;99.90;;;;;;5065600;28;20216;-75
2023/08/27 10:22:05;;;;;;;4.40;3.15;;;17.30;99.90;;;;;;5067679;28;20193;-75
2023/08/27 10:24:32;;;;;;;6.53;2.72;;;17.40;99.90;;;;;;5075751;28;20170;-74
2023/08/27 10:26:59;;;;;;;3.08;2.88;;;17.40;99.90;;;;;;5074320;28;20181;-75
2023/08/27 10:29:26;;;;;;;3.47;2.85;;;17.50;99.90;;;;;;5075254;28;20192;-75
2023/08/27 10:31:53;;;;;;;5.45;3.05;;;17.60;99.90;;;;;;5074070;28;20653;-76
2023/08/27 10:34:19;;;;;;;6.65;3.17;;;17.70;99.90;;;;;;5074556;28;20178;-75
2023/08/27 10:36:47;;;;;;;7.18;3.47;;;17.70;99.90;;;;;;5073455;28;20642;-75
2023/08/27 10:39:14;;;;;;;5.35;3.17;;;17.80;99.90;;;;;;5073454;28;20250;-76
2023/08/27 10:41:40;;;;;;;3.92;2.90;;;17.80;99.90;;;;;;5073539;28;20690;-75
2023/08/27 10:44:09;;;;;;;3.63;2.50;;;17.80;99.90;;;;;;5073507;28;20178;-74
2023/08/27 10:46:35;;;;;;;3.03;2.60;;;17.90;99.90;;;;;;5073400;28;20201;-75
2023/08/27 10:49:14;;;;;;;2.92;2.63;;;18.20;99.90;;;;;;5069486;28;20658;-76
2023/08/27 10:51:40;;;;;;;2.97;2.55;;;18.40;99.90;;;;;;5070198;28;20290;-76
2023/08/27 10:54:25;;;;;;;3.97;2.53;;;18.50;99.90;;;;;;5072578;28;20189;-78
2023/08/27 10:56:54;;;;;;;2.83;2.58;;;18.60;99.90;;;;;;5072921;28;20182;-78
2023/08/27 10:59:28;;;;;;;3.13;2.83;;;18.70;99.90;;;;;;5073065;28;20254;-79
2023/08/27 11:01:54;;;;;;;2.70;2.50;;;18.80;99.90;;;;;;5074702;28;20221;-79
2023/08/27 11:04:20;;;;;;;3.15;2.40;;;18.70;99.90;;;;;;5074594;28;20721;-77
2023/08/27 11:06:48;;;;;;;3.20;2.70;;;18.80;99.90;;;;;;5072768;28;20534;-79
2023/08/27 11:09:24;;;;;;;3.53;2.88;;;18.80;99.90;;;;;;5073691;28;20193;-77
2023/08/27 11:11:55;;;;;;;4.43;2.85;;;18.70;99.90;;;;;;5076652;28;20154;-80
2023/08/27 11:14:23;;;;;;;3.03;2.33;;;18.60;99.90;;;;;;5076303;28;20170;-76
2023/08/27 11:16:58;;;;;;;3.45;2.67;;;18.90;99.90;;;;;;5077426;28;20553;-76
2023/08/27 11:19:25;;;;;;;2.60;2.35;;;19.10;99.90;;;;;;5074722;28;20683;-80
2023/08/27 11:21:51;;;;;;;3.05;2.60;;;19.20;99.90;;;;;;5076415;28;20201;-75
2023/08/27 11:24:18;;;;;;;6.95;2.70;;;19.40;99.90;;;;;;5071406;28;20181;-81
2023/08/27 11:26:47;;;;;;;5.03;2.50;;;19.50;99.90;;;;;;5056718;28;20167;-80
2023/08/27 11:29:14;;;;;;;3.63;2.58;;;19.50;99.90;;;;;;5060062;28;20196;-80
2023/08/27 11:31:42;;;;;;;2.92;2.63;;;19.40;99.90;;;;;;5078919;28;20579;-75
2023/08/27 11:34:12;;;;;;;6.65;2.80;;;19.50;99.90;;;;;;5063989;28;20273;-81
2023/08/27 11:36:39;;;;;;;4.18;2.40;;;19.40;99.90;;;;;;5073264;28;20197;-80
2023/08/27 11:39:08;;;;;;;2.58;2.25;;;19.30;99.90;;;;;;5072011;28;20193;-76
2023/08/27 11:41:36;;;;;;;2.53;2.30;;;19.00;99.90;;;;;;5054321;28;20195;-75
2023/08/27 11:44:03;;;;;;;5.32;2.60;;;19.00;99.90;;;;;;5055029;28;20683;-75
2023/08/27 11:46:29;;;;;;;2.92;2.50;;;19.20;99.90;;;;;;5064739;28;20188;-77
2023/08/27 11:48:55;;;;;;;3.78;2.75;;;19.40;99.90;;;;;;5075044;28;20722;-80
2023/08/27 11:51:21;;;;;;;3.75;2.95;;;19.40;99.90;;;;;;5072894;28;20190;-79
2023/08/27 11:53:47;;;;;;;4.18;2.60;;;19.50;99.90;;;;;;5075285;28;20178;-81
2023/08/27 11:56:15;;;;;;;2.67;2.30;;;19.60;99.90;;;;;;5075933;28;20184;-81
2023/08/27 11:58:41;;;;;;;3.05;2.20;;;19.50;99.90;;;;;;5077888;28;20223;-81
2023/08/27 12:01:11;;;;;;;4.82;2.97;;;19.40;99.90;;;;;;5078120;28;20209;-81
2023/08/27 12:03:38;;;;;;;3.45;2.70;;;19.20;1.00;;;;;;5077389;28;20276;-80
2023/08/27 12:06:04;;;;;;;3.35;2.78;;;19.00;38.70;;;;;;5073947;28;20170;-78
2023/08/27 12:08:37;;;;;;;3.13;2.50;;;18.80;99.90;;;;;;5072143;28;20181;-78
2023/08/27 12:11:04;;;;;;;2.97;2.70;;;18.70;1.00;;;;;;5077802;28;20193;-78
2023/08/27 12:13:30;;;;;;;3.67;2.85;;;18.60;99.90;;;;;;5080270;28;20170;-80
2023/08/27 12:15:56;;;;;;;2.97;2.53;;;18.50;99.90;;;;;;5077828;28;20250;-76
2023/08/27 12:18:22;;;;;;;2.97;2.58;;;18.50;99.90;;;;;;5072672;28;20178;-75
2023/08/27 12:20:49;;;;;;;3.33;2.80;;;18.50;99.90;;;;;;5073846;28;20205;-75
2023/08/27 12:23:16;;;;;;;3.40;2.70;;;18.50;1.00;;;;;;5075572;28;20182;-75
2023/08/27 12:25:53;;;;;;;3.20;2.90;;;18.60;99.90;;;;;;5073308;28;20185;-75
2023/08/27 12:28:20;;;;;;;2.85;2.58;;;19.10;99.90;;;;;;5072221;28;20203;-75
2023/08/27 12:30:50;;;;;;;3.60;2.67;;;19.70;1.00;;;;;;5075201;28;20596;-75
2023/08/27 12:33:16;;;;;;;3.58;2.38;;;20.20;1.00;;;;;;5075350;28;20202;-76
2023/08/27 12:35:46;;;;;;;5.00;2.60;;;20.40;8.40;;;;;;5067782;28;20270;-76
2023/08/27 12:38:11;;;;;;;4.85;2.63;;;20.30;99.90;;;;;;5066761;28;20182;-76
2023/08/27 12:40:37;;;;;;;3.45;2.60;;;20.60;99.90;;;;;;5073842;28;20578;-76
2023/08/27 12:43:03;;;;;;;4.45;2.50;;;20.90;1.00;;;;;;5073838;28;20217;-75
2023/08/27 12:45:29;;;;;;;5.20;2.83;;;20.80;99.90;;;;;;5073396;28;20193;-75